Time,TemperatureF,DewpointF,PressureIn,WindDirection,WindDirectionDegrees,WindSpeedMPH,WindSpeedGustMPH,Humidity,HourlyPrecipIn,Conditions,Clouds,dailyrainin,SoftwareType,DateUTC
2013-06-14 00:02:00,60.6,58.0,29.89,SSE,162,0.0,0.0,92,0.00,,,0.15,weatherlink.com 1.10,2013-06-14 04:02:00,
2013-06-14 00:17:00,59.9,58.0,29.89,SSE,158,0.0,0.0,93,0.00,,,0.15,weatherlink.com 1.10,2013-06-14 04:17:00,
2013-06-14 00:32:00,59.3,58.0,29.89,SSE,158,0.0,1.0,94,0.00,,,0.15,weatherlink.com 1.10,2013-06-14 04:32:00,
2013-06-14 00:47:00,58.8,57.0,29.89,SE,129,0.0,1.0,94,0.00,,,0.15,weatherlink.com 1.10,2013-06-14 04:47:00,
2013-06-14 01:02:00,58.6,57.0,29.89,SE,142,0.0,1.0,95,0.00,,,0.15,weatherlink.com 1.10,2013-06-14 05:02:00,
2013-06-14 01:17:00,58.6,57.0,29.89,South,170,0.0,2.0,95,0.00,,,0.15,weatherlink.com 1.10,2013-06-14 05:17:00,
2013-06-14 01:47:00,58.5,57.0,29.89,SE,135,0.0,4.0,94,0.00,,,0.15,weatherlink.com 1.10,2013-06-14 05:47:00,
2013-06-14 02:02:00,58.9,57.0,29.89,WSW,250,1.0,3.0,94,0.00,,,0.15,weatherlink.com 1.10,2013-06-14 06:02:00,
2013-06-14 02:17:00,59.2,57.0,29.89,SSE,162,1.0,2.0,92,0.00,,,0.15,weatherlink.com 1.10,2013-06-14 06:17:00,
2013-06-14 02:32:00,59.3,57.0,29.89,SSW,207,0.0,2.0,92,0.00,,,0.15,weatherlink.com 1.10,2013-06-14 06:32:00,
2013-06-14 02:47:00,59.3,57.0,29.88,South,172,0.0,3.0,91,0.00,,,0.15,weatherlink.com 1.10,2013-06-14 06:47:00,
2013-06-14 03:02:00,58.7,56.0,29.89,SSE,165,0.0,2.0,92,0.00,,,0.15,weatherlink.com 1.10,2013-06-14 07:02:00,
2013-06-14 03:17:00,58.4,56.0,29.88,SSE,158,2.0,2.0,92,0.00,,,0.00,weatherlink.com 1.10,2013-06-14 07:17:00,
2013-06-14 03:33:00,57.7,56.0,29.88,SSE,158,0.0,2.0,94,0.00,,,0.00,weatherlink.com 1.10,2013-06-14 07:33:00,
2013-06-14 03:48:00,57.6,56.0,29.88,SSE,159,0.0,1.0,95,0.00,,,0.00,weatherlink.com 1.10,2013-06-14 07:48:00,
2013-06-14 04:03:00,57.4,56.0,29.88,SSE,159,0.0,0.0,96,0.00,,,0.00,weatherlink.com 1.10,2013-06-14 08:03:00,
2013-06-14 04:18:00,57.1,56.0,29.89,SSE,160,1.0,1.0,96,0.00,,,0.00,weatherlink.com 1.10,2013-06-14 08:18:00,
2013-06-14 04:48:00,56.6,56.0,29.88,SSW,194,0.0,1.0,96,0.00,,,0.00,weatherlink.com 1.10,2013-06-14 08:48:00,
2013-06-14 05:03:00,56.3,56.0,29.89,SSW,193,0.0,0.0,97,0.00,,,0.00,weatherlink.com 1.10,2013-06-14 09:03:00,
2013-06-14 05:18:00,55.7,55.0,29.90,SSW,194,0.0,0.0,97,0.00,,,0.00,weatherlink.com 1.10,2013-06-14 09:18:00,
2013-06-14 05:33:00,55.4,55.0,29.90,SSW,194,0.0,1.0,97,0.00,,,0.00,weatherlink.com 1.10,2013-06-14 09:33:00,
2013-06-14 05:48:00,55.1,54.0,29.91,SE,144,0.0,1.0,97,0.00,,,0.00,weatherlink.com 1.10,2013-06-14 09:48:00,
2013-06-14 06:04:00,55.1,55.0,29.91,SSE,153,0.0,1.0,98,0.00,,,0.00,weatherlink.com 1.10,2013-06-14 10:04:00,
2013-06-14 06:18:00,55.1,55.0,29.92,SSE,152,0.0,0.0,98,0.00,,,0.00,weatherlink.com 1.10,2013-06-14 10:18:00,
2013-06-14 06:33:00,55.2,55.0,29.93,SSE,153,0.0,1.0,98,0.00,,,0.00,weatherlink.com 1.10,2013-06-14 10:33:00,
2013-06-14 06:48:00,55.3,55.0,29.93,SSE,153,0.0,1.0,98,0.00,,,0.00,weatherlink.com 1.10,2013-06-14 10:48:00,
2013-06-14 07:03:00,55.4,55.0,29.94,SSE,153,0.0,1.0,98,0.00,,,0.00,weatherlink.com 1.10,2013-06-14 11:03:00,
2013-06-14 07:18:00,56.5,56.0,29.95,SSE,148,1.0,1.0,99,0.00,,,0.00,weatherlink.com 1.10,2013-06-14 11:18:00,
2013-06-14 07:33:00,57.6,57.0,29.95,SE,142,0.0,2.0,97,0.00,,,0.00,weatherlink.com 1.10,2013-06-14 11:33:00,
2013-06-14 07:48:00,58.3,57.0,29.96,SSE,153,1.0,3.0,95,0.01,,,0.01,weatherlink.com 1.10,2013-06-14 11:48:00,
2013-06-14 08:03:00,59.4,58.0,29.97,NE,40,4.0,4.0,95,0.01,,,0.01,weatherlink.com 1.10,2013-06-14 12:03:00,
2013-06-14 08:18:00,60.8,58.0,29.97,ENE,63,4.0,6.0,89,0.01,,,0.01,weatherlink.com 1.10,2013-06-14 12:18:00,
2013-06-14 08:33:00,61.5,57.0,29.98,NNW,328,1.0,7.0,86,0.01,,,0.01,weatherlink.com 1.10,2013-06-14 12:33:00,
2013-06-14 09:03:00,62.7,57.0,29.99,NE,56,4.0,5.0,81,0.00,,,0.01,weatherlink.com 1.10,2013-06-14 13:03:00,
2013-06-14 09:18:00,63.5,58.0,30.00,ESE,104,0.0,3.0,82,0.00,,,0.01,weatherlink.com 1.10,2013-06-14 13:18:00,
2013-06-14 09:34:00,63.8,57.0,30.01,SE,124,2.0,4.0,78,0.00,,,0.01,weatherlink.com 1.10,2013-06-14 13:34:00,
2013-06-14 09:49:00,64.9,57.0,30.01,ENE,64,3.0,7.0,76,0.00,,,0.01,weatherlink.com 1.10,2013-06-14 13:49:00,
2013-06-14 10:04:00,65.9,57.0,30.01,NE,47,3.0,14.0,72,0.00,,,0.01,weatherlink.com 1.10,2013-06-14 14:04:00,
2013-06-14 10:19:00,66.8,58.0,30.02,NNW,335,2.0,7.0,74,0.00,,,0.01,weatherlink.com 1.10,2013-06-14 14:19:00,
2013-06-14 10:34:00,67.0,56.0,30.02,NW,313,3.0,9.0,69,0.00,,,0.01,weatherlink.com 1.10,2013-06-14 14:34:00,
2013-06-14 10:49:00,67.2,56.0,30.01,NNW,345,4.0,11.0,67,0.00,,,0.01,weatherlink.com 1.10,2013-06-14 14:49:00,
2013-06-14 11:04:00,67.8,56.0,30.01,NNE,22,6.0,12.0,66,0.00,,,0.01,weatherlink.com 1.10,2013-06-14 15:04:00,
2013-06-14 11:19:00,68.3,57.0,30.00,NNE,15,6.0,6.0,68,0.00,,,0.01,weatherlink.com 1.10,2013-06-14 15:19:00,
2013-06-14 11:34:00,68.3,59.0,30.01,NE,47,2.0,10.0,71,0.00,,,0.01,weatherlink.com 1.10,2013-06-14 15:34:00,
2013-06-14 11:49:00,67.7,58.0,30.02,North,1,2.0,7.0,70,0.00,,,0.01,weatherlink.com 1.10,2013-06-14 15:49:00,
2013-06-14 12:04:00,68.8,59.0,30.02,NE,53,7.0,9.0,71,0.00,,,0.01,weatherlink.com 1.10,2013-06-14 16:04:00,
2013-06-14 12:19:00,70.8,59.0,30.02,NNE,30,6.0,6.0,67,0.00,,,0.01,weatherlink.com 1.10,2013-06-14 16:19:00,
2013-06-14 12:34:00,70.6,58.0,30.03,SE,141,4.0,11.0,65,0.00,,,0.01,weatherlink.com 1.10,2013-06-14 16:34:00,
2013-06-14 12:49:00,71.0,57.0,30.03,NNW,346,5.0,13.0,61,0.00,,,0.01,weatherlink.com 1.10,2013-06-14 16:49:00,
2013-06-14 13:04:00,71.3,58.0,30.03,NW,307,2.0,7.0,63,0.00,,,0.01,weatherlink.com 1.10,2013-06-14 17:04:00,
2013-06-14 13:20:00,70.1,57.0,30.04,NE,41,3.0,9.0,63,0.00,,,0.01,weatherlink.com 1.10,2013-06-14 17:20:00,
2013-06-14 13:35:00,69.4,57.0,30.05,NE,46,5.0,6.0,65,0.00,,,0.01,weatherlink.com 1.10,2013-06-14 17:35:00,
2013-06-14 13:50:00,70.1,57.0,30.04,ENE,72,10.0,10.0,63,0.00,,,0.01,weatherlink.com 1.10,2013-06-14 17:50:00,
2013-06-14 14:05:00,71.0,59.0,30.04,North,9,2.0,6.0,66,0.00,,,0.01,weatherlink.com 1.10,2013-06-14 18:05:00,
2013-06-14 14:20:00,70.6,58.0,30.04,North,9,4.0,6.0,65,0.00,,,0.01,weatherlink.com 1.10,2013-06-14 18:20:00,
2013-06-14 14:35:00,72.2,60.0,30.04,ESE,105,1.0,11.0,65,0.00,,,0.01,weatherlink.com 1.10,2013-06-14 18:35:00,
2013-06-14 14:50:00,72.2,58.0,30.04,WNW,297,3.0,13.0,61,0.00,,,0.01,weatherlink.com 1.10,2013-06-14 18:50:00,
2013-06-14 15:20:00,72.1,59.0,30.03,ENE,65,2.0,6.0,63,0.00,,,0.01,weatherlink.com 1.10,2013-06-14 19:20:00,
2013-06-14 15:35:00,73.0,59.0,30.03,NE,44,3.0,7.0,62,0.00,,,0.01,weatherlink.com 1.10,2013-06-14 19:35:00,
2013-06-14 15:50:00,72.6,56.0,30.02,NE,53,8.0,9.0,57,0.00,,,0.01,weatherlink.com 1.10,2013-06-14 19:50:00,
2013-06-14 16:05:00,71.4,57.0,30.02,NE,39,2.0,8.0,61,0.00,,,0.01,weatherlink.com 1.10,2013-06-14 20:05:00,
2013-06-14 16:20:00,72.7,57.0,30.02,NW,312,3.0,9.0,59,0.00,,,0.01,weatherlink.com 1.10,2013-06-14 20:20:00,
2013-06-14 16:35:00,72.0,58.0,30.03,NE,41,4.0,5.0,61,0.00,,,0.01,weatherlink.com 1.10,2013-06-14 20:35:00,
2013-06-14 16:50:00,71.2,59.0,30.03,NNW,328,1.0,4.0,66,0.00,,,0.01,weatherlink.com 1.10,2013-06-14 20:50:00,
2013-06-14 17:05:00,72.9,61.0,30.02,SE,128,1.0,4.0,66,0.00,,,0.01,weatherlink.com 1.10,2013-06-14 21:05:00,
2013-06-14 17:20:00,73.9,60.0,30.02,ENE,75,4.0,4.0,62,0.00,,,0.01,weatherlink.com 1.10,2013-06-14 21:20:00,
2013-06-14 17:35:00,73.7,60.0,30.03,North,6,2.0,6.0,63,0.00,,,0.01,weatherlink.com 1.10,2013-06-14 21:35:00,
2013-06-14 17:50:00,71.5,58.0,30.03,NE,41,2.0,7.0,63,0.00,,,0.01,weatherlink.com 1.10,2013-06-14 21:50:00,
2013-06-14 18:05:00,71.6,60.0,30.03,NNW,348,2.0,4.0,66,0.00,,,0.01,weatherlink.com 1.10,2013-06-14 22:05:00,
2013-06-14 18:20:00,72.7,59.0,30.02,North,354,2.0,5.0,62,0.00,,,0.01,weatherlink.com 1.10,2013-06-14 22:20:00,
2013-06-14 19:35:00,70.3,59.0,30.03,NNE,15,0.0,3.0,67,0.00,,,0.01,weatherlink.com 1.10,2013-06-14 23:35:00,
2013-06-14 19:50:00,69.4,57.0,30.02,NE,34,0.0,3.0,66,0.00,,,0.01,weatherlink.com 1.10,2013-06-14 23:50:00,
2013-06-14 20:20:00,66.9,58.0,30.02,NNE,25,0.0,1.0,73,0.00,,,0.01,weatherlink.com 1.10,2013-06-15 00:20:00,
2013-06-14 20:50:00,65.5,58.0,30.04,North,352,0.0,2.0,77,0.00,,,0.01,weatherlink.com 1.10,2013-06-15 00:50:00,
2013-06-14 21:05:00,64.5,58.0,30.04,NNE,12,1.0,2.0,79,0.00,,,0.01,weatherlink.com 1.10,2013-06-15 01:05:00,
2013-06-14 21:20:00,63.6,58.0,30.04,NE,37,1.0,1.0,82,0.00,,,0.01,weatherlink.com 1.10,2013-06-15 01:20:00,
2013-06-14 21:50:00,61.2,57.0,30.05,NE,39,0.0,0.0,85,0.00,,,0.01,weatherlink.com 1.10,2013-06-15 01:50:00,
2013-06-14 22:05:00,60.0,57.0,30.05,NE,39,0.0,0.0,88,0.00,,,0.01,weatherlink.com 1.10,2013-06-15 02:05:00,
2013-06-14 22:35:00,59.3,56.0,30.07,NE,39,0.0,0.0,90,0.00,,,0.01,weatherlink.com 1.10,2013-06-15 02:35:00,
2013-06-14 22:50:00,58.7,56.0,30.08,NE,39,0.0,0.0,91,0.00,,,0.01,weatherlink.com 1.10,2013-06-15 02:50:00,
2013-06-14 23:05:00,58.2,56.0,30.09,NE,39,0.0,0.0,92,0.00,,,0.01,weatherlink.com 1.10,2013-06-15 03:05:00,
2013-06-14 23:20:00,57.6,56.0,30.09,NE,39,0.0,0.0,93,0.00,,,0.01,weatherlink.com 1.10,2013-06-15 03:20:00,
2013-06-14 23:35:00,57.3,56.0,30.10,NE,39,0.0,0.0,95,0.00,,,0.01,weatherlink.com 1.10,2013-06-15 03:35:00,
2013-06-14 23:50:00,57.2,56.0,30.10,NE,39,0.0,0.0,95,0.00,,,0.01,weatherlink.com 1.10,2013-06-15 03:50:00,